createdAt,value
2022-09-23T00:01:06.653Z,4.93
2022-09-23T00:03:35.372Z,5.60
2022-09-23T00:06:08.056Z,4.87
2022-09-23T00:08:35.268Z,4.53
2022-09-23T00:11:08.291Z,4.57
2022-09-23T00:13:36.828Z,6.40
2022-09-23T00:16:06.145Z,7.00
2022-09-23T00:18:34.011Z,4.17
2022-09-23T00:21:10.496Z,7.77
2022-09-23T00:23:38.647Z,5.07
2022-09-23T00:26:07.468Z,5.47
2022-09-23T00:28:35.456Z,5.43
2022-09-23T00:31:07.553Z,6.17
2022-09-23T00:33:34.948Z,6.30
2022-09-23T00:36:07.031Z,4.47
2022-09-23T00:38:34.271Z,5.40
2022-09-23T00:41:02.151Z,6.17
2022-09-23T00:43:49.095Z,5.57
2022-09-23T00:46:37.447Z,8.20
2022-09-23T00:49:12.504Z,4.67
2022-09-23T00:51:49.862Z,4.77
2022-09-23T00:54:18.693Z,6.13
2022-09-23T00:56:45.949Z,9.10
2022-09-23T00:59:13.343Z,5.97
2022-09-23T01:01:40.764Z,6.53
2022-09-23T01:04:08.622Z,8.87
2022-09-23T01:06:36.055Z,6.40
2022-09-23T01:09:03.757Z,7.50
2022-09-23T01:11:37.040Z,6.73
2022-09-23T01:14:23.063Z,5.90
2022-09-23T01:16:50.260Z,6.00
2022-09-23T01:19:20.541Z,6.03
2022-09-23T01:21:53.532Z,5.13
2022-09-23T01:24:47.510Z,5.87
2022-09-23T01:27:20.575Z,7.33
2022-09-23T01:30:02.823Z,5.40
2022-09-23T01:32:43.080Z,7.67
2022-09-23T01:35:19.009Z,4.80
2022-09-23T01:38:11.634Z,6.73
2022-09-23T01:40:45.506Z,6.13
2022-09-23T01:43:27.267Z,5.17
2022-09-23T01:46:00.210Z,6.23
2022-09-23T01:48:40.791Z,7.97
2022-09-23T01:51:16.832Z,5.27
2022-09-23T01:53:49.314Z,16.93
2022-09-23T01:56:30.703Z,8.03
2022-09-23T01:59:12.202Z,9.47
2022-09-23T02:01:51.568Z,9.33
2022-09-23T02:04:25.416Z,9.13
2022-09-23T02:06:58.881Z,11.33
2022-09-23T02:09:31.645Z,8.47
2022-09-23T02:12:03.976Z,8.10
2022-09-23T02:14:38.864Z,9.83
2022-09-23T02:17:18.068Z,7.97
2022-09-23T02:19:57.113Z,8.23
2022-09-23T02:22:29.585Z,14.67
2022-09-23T02:24:58.384Z,9.40
2022-09-23T02:27:48.458Z,8.67
2022-09-23T02:30:20.271Z,8.57
2022-09-23T02:32:56.600Z,8.93
2022-09-23T02:35:34.920Z,9.27
2022-09-23T02:38:16.823Z,12.07
2022-09-23T02:40:59.641Z,10.37
2022-09-23T02:43:50.513Z,6.70
2022-09-23T02:46:21.153Z,8.87
2022-09-23T02:49:00.761Z,6.90
2022-09-23T02:51:28.540Z,9.83
2022-09-23T02:53:57.373Z,7.83
2022-09-23T02:56:25.113Z,8.83
2022-09-23T02:58:54.114Z,9.13
2022-09-23T03:01:48.699Z,9.57
2022-09-23T03:04:43.731Z,6.93
2022-09-23T03:07:19.223Z,4.90
2022-09-23T03:09:59.738Z,5.37
2022-09-23T03:12:38.568Z,5.43
2022-09-23T03:15:44.468Z,7.37
2022-09-23T03:18:16.872Z,8.23
2022-09-23T03:20:52.686Z,6.70
2022-09-23T03:23:32.698Z,8.90
2022-09-23T03:26:05.458Z,6.70
2022-09-23T03:28:40.478Z,8.13
2022-09-23T03:31:08.207Z,5.97
2022-09-23T03:33:36.667Z,6.77
2022-09-23T03:36:11.161Z,7.87
2022-09-23T03:38:43.384Z,9.60
2022-09-23T03:41:13.311Z,5.30
2022-09-23T03:43:40.493Z,7.00
2022-09-23T03:46:08.224Z,5.40
2022-09-23T03:48:35.449Z,6.43
2022-09-23T03:51:19.023Z,9.23
2022-09-23T03:53:46.352Z,4.73
2022-09-23T03:56:13.693Z,6.40
2022-09-23T03:58:40.863Z,8.70
2022-09-23T04:01:08.035Z,6.83
2022-09-23T04:03:35.287Z,4.40
2022-09-23T04:06:02.543Z,8.30
2022-09-23T04:08:29.856Z,4.37
2022-09-23T04:11:01.334Z,7.53
2022-09-23T04:13:29.221Z,9.03
2022-09-23T04:15:56.559Z,6.90
2022-09-23T04:18:23.919Z,5.63
2022-09-23T04:20:51.057Z,6.27
2022-09-23T04:23:18.272Z,9.93
2022-09-23T04:25:49.371Z,8.23
2022-09-23T04:28:16.641Z,7.73
2022-09-23T04:30:43.831Z,8.43
2022-09-23T04:33:11.099Z,7.20
2022-09-23T04:35:40.401Z,9.93
2022-09-23T04:38:07.734Z,6.60
2022-09-23T04:40:36.006Z,8.47
2022-09-23T04:43:03.428Z,4.80
2022-09-23T04:45:30.541Z,8.83
2022-09-23T04:47:57.763Z,8.83
2022-09-23T04:50:25.760Z,6.33
2022-09-23T04:52:53.685Z,5.73
2022-09-23T04:55:21.699Z,4.93
2022-09-23T04:57:48.863Z,6.80
2022-09-23T05:00:16.379Z,7.53
2022-09-23T05:02:48.187Z,7.87
2022-09-23T05:05:16.656Z,8.93
2022-09-23T05:07:43.942Z,5.80
2022-09-23T05:10:11.217Z,8.27
2022-09-23T05:12:38.340Z,6.47
2022-09-23T05:15:05.915Z,6.60
2022-09-23T05:17:33.059Z,6.23
2022-09-23T05:20:00.293Z,9.37
2022-09-23T05:22:30.056Z,11.07
2022-09-23T05:24:57.267Z,6.73
2022-09-23T05:27:24.445Z,9.33
2022-09-23T05:29:51.573Z,6.73
2022-09-23T05:32:19.096Z,6.50
2022-09-23T05:34:46.304Z,6.57
2022-09-23T05:37:13.456Z,7.17
2022-09-23T05:39:40.624Z,9.03
2022-09-23T05:42:07.785Z,7.63
2022-09-23T05:44:34.971Z,10.50
2022-09-23T05:47:02.111Z,8.77
2022-09-23T05:49:48.271Z,5.27
2022-09-23T05:52:16.558Z,7.03
2022-09-23T05:54:43.757Z,7.13
2022-09-23T05:57:10.889Z,10.00
2022-09-23T05:59:38.328Z,6.70
2022-09-23T06:02:05.556Z,7.70
2022-09-23T06:04:32.846Z,11.10
2022-09-23T06:07:03.363Z,6.57
2022-09-23T06:09:36.208Z,7.00
2022-09-23T06:12:04.278Z,10.03
2022-09-23T06:14:31.502Z,8.20
2022-09-23T06:16:58.878Z,7.37
2022-09-23T06:19:26.011Z,11.63
2022-09-23T06:21:53.167Z,4.77
2022-09-23T06:24:23.751Z,7.13
2022-09-23T06:26:53.451Z,6.23
2022-09-23T06:29:20.677Z,5.80
2022-09-23T06:31:49.675Z,6.87
2022-09-23T06:34:17.336Z,7.13
2022-09-23T06:36:46.349Z,12.43
2022-09-23T06:39:15.204Z,7.53
2022-09-23T06:41:43.406Z,7.83
2022-09-23T06:44:10.906Z,9.97
2022-09-23T06:46:38.461Z,7.63
2022-09-23T06:49:05.825Z,10.17
2022-09-23T06:51:34.448Z,4.23
2022-09-23T06:54:01.656Z,5.97
2022-09-23T06:56:28.836Z,6.87
2022-09-23T06:58:56.040Z,7.77
2022-09-23T07:01:23.301Z,6.37
2022-09-23T07:03:50.749Z,8.87
2022-09-23T07:06:17.987Z,5.03
2022-09-23T07:08:46.617Z,7.27
2022-09-23T07:11:15.247Z,4.13
2022-09-23T07:13:42.882Z,5.77
2022-09-23T07:16:11.614Z,8.97
2022-09-23T07:18:39.259Z,7.37
2022-09-23T07:21:12.277Z,9.13
2022-09-23T07:23:39.521Z,5.27
2022-09-23T07:26:06.740Z,5.00
2022-09-23T07:28:34.970Z,6.83
2022-09-23T07:31:32.964Z,8.33
2022-09-23T07:34:04.584Z,5.30
2022-09-23T07:36:32.257Z,7.17
2022-09-23T07:39:00.773Z,8.27
2022-09-23T07:41:29.392Z,4.43
2022-09-23T07:43:58.204Z,5.67
2022-09-23T07:46:27.726Z,6.00
2022-09-23T07:48:55.529Z,4.30
2022-09-23T07:51:33.261Z,5.13
2022-09-23T07:54:04.605Z,6.23
2022-09-23T07:56:31.791Z,8.03
2022-09-23T07:58:59.040Z,4.87
2022-09-23T08:01:30.000Z,4.67
2022-09-23T08:03:58.881Z,5.97
2022-09-23T08:06:26.235Z,3.60
2022-09-23T08:08:53.850Z,3.80
2022-09-23T08:11:20.998Z,5.70
2022-09-23T08:13:49.978Z,4.20
2022-09-23T08:16:18.539Z,6.33
2022-09-23T08:18:49.186Z,5.33
2022-09-23T08:21:22.050Z,4.13
2022-09-23T08:23:49.447Z,4.83
2022-09-23T08:26:21.425Z,5.90
2022-09-23T08:28:50.950Z,7.37
2022-09-23T08:31:18.520Z,6.00
2022-09-23T08:33:45.790Z,7.50
2022-09-23T08:36:13.052Z,6.70
2022-09-23T08:38:40.261Z,5.80
2022-09-23T08:41:27.855Z,5.80
2022-09-23T08:43:59.458Z,6.40
2022-09-23T08:46:33.552Z,8.63
2022-09-23T08:49:01.886Z,6.23
2022-09-23T08:51:39.935Z,6.20
2022-09-23T08:54:13.681Z,4.73
2022-09-23T08:56:44.443Z,6.60
2022-09-23T08:59:37.738Z,7.47
2022-09-23T09:02:23.763Z,7.20
2022-09-23T09:04:58.938Z,5.37
2022-09-23T09:07:38.229Z,5.20
2022-09-23T09:10:10.235Z,6.30
2022-09-23T09:12:47.085Z,7.30
2022-09-23T09:15:14.250Z,5.43
2022-09-23T09:18:20.404Z,6.10
2022-09-23T09:21:13.108Z,5.50
2022-09-23T09:23:57.431Z,4.83
2022-09-23T09:26:28.024Z,5.40
2022-09-23T09:29:17.089Z,4.97
2022-09-23T09:31:50.947Z,3.97
2022-09-23T09:34:35.349Z,4.90
2022-09-23T09:37:37.645Z,6.03
2022-09-23T09:40:05.357Z,4.27
2022-09-23T09:42:41.190Z,4.83
2022-09-23T09:45:16.294Z,3.10
2022-09-23T09:48:05.206Z,5.53
2022-09-23T09:50:53.120Z,5.70
2022-09-23T09:53:20.240Z,6.90
2022-09-23T09:55:59.758Z,7.17
2022-09-23T09:58:36.974Z,6.10
2022-09-23T10:01:04.294Z,4.53
2022-09-23T10:03:38.810Z,3.50
2022-09-23T10:06:21.733Z,6.03
2022-09-23T10:09:02.754Z,6.77
2022-09-23T10:11:31.755Z,9.93
2022-09-23T10:14:12.198Z,6.07
2022-09-23T10:16:40.432Z,5.23
2022-09-23T10:19:18.367Z,5.60
2022-09-23T10:21:55.531Z,4.87
2022-09-23T10:24:26.355Z,3.70
2022-09-23T10:27:27.394Z,5.37
2022-09-23T10:29:56.636Z,4.80
2022-09-23T10:32:28.762Z,8.70
2022-09-23T10:35:13.322Z,4.47
2022-09-23T10:37:53.139Z,11.10
2022-09-23T10:40:30.995Z,5.30
2022-09-23T10:43:04.461Z,5.60
2022-09-23T10:45:41.207Z,7.33
2022-09-23T10:48:35.416Z,7.57
2022-09-23T10:51:26.463Z,4.83
2022-09-23T10:54:18.219Z,5.00
2022-09-23T10:57:03.128Z,6.20
2022-09-23T10:59:33.230Z,5.43
2022-09-23T11:02:00.360Z,7.33
2022-09-23T11:04:42.403Z,5.57
2022-09-23T11:07:20.822Z,6.77
2022-09-23T11:10:41.978Z,8.43
2022-09-23T11:13:14.051Z,8.70
2022-09-23T11:16:01.009Z,6.87
2022-09-23T11:18:33.933Z,7.63
2022-09-23T11:21:42.645Z,4.47
2022-09-23T11:24:29.816Z,5.50
2022-09-23T11:27:35.047Z,8.77
2022-09-23T11:30:02.244Z,9.40
2022-09-23T11:32:50.403Z,5.80
2022-09-23T11:35:20.537Z,4.40
2022-09-23T11:37:58.641Z,7.27
2022-09-23T11:40:36.256Z,8.53
2022-09-23T11:43:06.268Z,5.37
2022-09-23T11:46:03.714Z,6.80
2022-09-23T11:48:37.993Z,4.87
2022-09-23T11:51:07.487Z,5.50
2022-09-23T11:53:37.626Z,4.80
2022-09-23T11:56:11.587Z,7.40
2022-09-23T11:58:53.173Z,5.83
2022-09-23T12:01:37.493Z,5.63
2022-09-23T12:04:19.929Z,4.50
2022-09-23T12:07:08.109Z,6.77
2022-09-23T12:09:57.593Z,8.90
2022-09-23T12:12:54.419Z,7.17
2022-09-23T12:15:55.963Z,5.53
2022-09-23T12:18:58.118Z,8.13
2022-09-23T12:21:49.816Z,4.43
2022-09-23T12:24:35.214Z,5.33
2022-09-23T12:27:07.016Z,6.70
2022-09-23T12:29:38.154Z,6.70
2022-09-23T12:32:05.579Z,5.37
2022-09-23T12:34:41.366Z,6.07
2022-09-23T12:37:08.698Z,5.30
2022-09-23T12:39:38.289Z,6.13
2022-09-23T12:42:17.636Z,3.37
2022-09-23T12:44:46.737Z,5.20
2022-09-23T12:47:17.028Z,9.37
2022-09-23T12:49:44.441Z,5.33
2022-09-23T12:52:16.532Z,4.20
2022-09-23T12:54:45.033Z,7.73
2022-09-23T12:57:12.518Z,5.67
2022-09-23T12:59:53.713Z,5.17
2022-09-23T13:02:37.350Z,8.87
2022-09-23T13:05:11.184Z,8.73
2022-09-23T13:07:42.124Z,3.43
2022-09-23T13:10:17.203Z,6.77
2022-09-23T13:12:46.485Z,3.93
2022-09-23T13:15:40.225Z,6.60
2022-09-23T13:18:20.632Z,8.77
2022-09-23T13:20:51.320Z,6.20
2022-09-23T13:23:27.733Z,5.10
2022-09-23T13:26:01.784Z,3.23
2022-09-23T13:28:40.324Z,4.17
2022-09-23T13:31:16.468Z,2.50
2022-09-23T13:33:49.996Z,5.37
2022-09-23T13:36:19.002Z,4.63
2022-09-23T13:38:47.590Z,3.73
2022-09-23T13:41:20.709Z,4.20
2022-09-23T13:44:00.175Z,3.20
2022-09-23T13:46:28.869Z,4.23
2022-09-23T13:48:57.741Z,3.50
2022-09-23T13:51:29.103Z,2.60
2022-09-23T13:53:59.390Z,5.50
2022-09-23T13:56:28.438Z,3.57
2022-09-23T13:59:12.262Z,3.47
2022-09-23T14:01:40.425Z,1.80
2022-09-23T14:04:24.023Z,7.57
2022-09-23T14:06:52.244Z,4.00
2022-09-23T14:09:23.514Z,3.57
2022-09-23T14:11:53.213Z,3.60
2022-09-23T14:14:21.114Z,2.70
2022-09-23T14:16:50.234Z,2.77
2022-09-23T14:19:21.038Z,5.07
2022-09-23T14:21:50.524Z,6.30
2022-09-23T14:24:22.384Z,4.77
2022-09-23T14:26:51.087Z,4.83
2022-09-23T14:29:28.231Z,3.23
2022-09-23T14:32:16.974Z,3.33
2022-09-23T14:34:45.519Z,3.87
2022-09-23T14:37:20.323Z,3.77
2022-09-23T14:39:57.034Z,6.47
2022-09-23T14:42:26.234Z,4.17
2022-09-23T14:44:53.395Z,2.80
2022-09-23T14:47:20.714Z,6.43
2022-09-23T14:49:49.510Z,4.20
2022-09-23T14:52:17.140Z,4.00
2022-09-23T14:54:50.501Z,3.60
2022-09-23T14:57:22.613Z,3.20
2022-09-23T14:59:55.628Z,5.13
2022-09-23T15:02:30.811Z,3.60
2022-09-23T15:05:16.824Z,2.17
2022-09-23T15:07:48.649Z,5.43
2022-09-23T15:10:37.996Z,4.33
2022-09-23T15:13:29.049Z,3.60
2022-09-23T15:15:57.472Z,2.07
2022-09-23T15:18:25.961Z,3.13
2022-09-23T15:21:02.984Z,1.93
2022-09-23T15:23:45.184Z,5.13
2022-09-23T15:26:22.761Z,7.03
2022-09-23T15:28:52.012Z,2.23
2022-09-23T15:31:21.079Z,4.83
2022-09-23T15:33:49.507Z,5.00
2022-09-23T15:36:28.013Z,4.70
2022-09-23T15:38:55.921Z,5.03
2022-09-23T15:41:23.494Z,2.83
2022-09-23T15:43:51.386Z,4.07
2022-09-23T15:46:25.282Z,2.33
2022-09-23T15:49:24.704Z,5.60
2022-09-23T15:51:52.029Z,4.77
2022-09-23T15:54:19.415Z,7.47
2022-09-23T15:56:46.847Z,3.63
2022-09-23T15:59:14.017Z,5.60
2022-09-23T16:01:42.646Z,4.20
2022-09-23T16:04:11.452Z,4.87
2022-09-23T16:06:38.671Z,5.87
2022-09-23T16:09:05.870Z,4.20
2022-09-23T16:11:33.220Z,2.93
2022-09-23T16:14:00.646Z,4.27
2022-09-23T16:16:28.610Z,6.83
2022-09-23T16:18:55.940Z,4.93
2022-09-23T16:21:27.818Z,3.80
2022-09-23T16:23:55.180Z,6.93
2022-09-23T16:26:25.618Z,4.53
2022-09-23T16:28:55.819Z,3.43
2022-09-23T16:31:24.710Z,5.37
2022-09-23T16:33:53.149Z,4.03
2022-09-23T16:36:35.703Z,12.03
2022-09-23T16:39:06.027Z,9.10
2022-09-23T16:41:33.509Z,13.47
2022-09-23T16:44:02.305Z,5.47
2022-09-23T16:46:30.208Z,8.93
2022-09-23T16:48:58.476Z,6.67
2022-09-23T16:51:29.592Z,5.53
2022-09-23T16:53:58.649Z,8.87
2022-09-23T16:56:29.200Z,17.97
2022-09-23T16:58:56.959Z,15.60
2022-09-23T17:01:28.193Z,13.67
2022-09-23T17:03:55.945Z,7.13
2022-09-23T17:06:23.166Z,6.43
2022-09-23T17:08:50.415Z,11.57
2022-09-23T17:11:18.300Z,9.57
2022-09-23T17:13:46.464Z,10.90
2022-09-23T17:16:32.505Z,5.97
2022-09-23T17:19:00.189Z,8.37
2022-09-23T17:21:42.708Z,7.97
2022-09-23T17:24:10.125Z,7.33
2022-09-23T17:26:37.621Z,6.33
2022-09-23T17:29:06.342Z,4.40
2022-09-23T17:31:34.749Z,8.70
2022-09-23T17:34:11.556Z,6.33
2022-09-23T17:36:43.421Z,4.20
2022-09-23T17:39:11.810Z,7.23
2022-09-23T17:44:22.196Z,8.73
2022-09-23T17:46:53.489Z,7.30
2022-09-23T17:49:23.213Z,3.53
2022-09-23T17:51:53.982Z,7.53
2022-09-23T17:59:47.810Z,4.73
2022-09-23T18:02:17.023Z,6.47
2022-09-23T18:12:56.649Z,8.60
2022-09-23T18:18:08.475Z,10.43
2022-09-23T18:20:37.027Z,7.40
2022-09-23T18:23:05.512Z,8.17
2022-09-23T18:25:39.589Z,11.87
2022-09-23T18:28:08.637Z,8.93
2022-09-23T18:30:37.287Z,12.40
2022-09-23T18:33:05.072Z,6.27
2022-09-23T18:35:35.836Z,18.77
2022-09-23T18:38:03.817Z,9.60
2022-09-23T18:40:32.650Z,8.60
2022-09-23T18:43:01.064Z,10.47
2022-09-23T18:45:28.699Z,7.50
2022-09-23T18:47:58.031Z,10.47
2022-09-23T18:50:25.688Z,5.97
2022-09-23T18:52:55.826Z,5.67
2022-09-23T18:55:24.386Z,7.43
2022-09-23T18:57:52.859Z,8.63
2022-09-23T19:00:21.222Z,15.27
2022-09-23T19:02:49.684Z,9.70
2022-09-23T19:05:18.660Z,10.53
2022-09-23T19:07:47.528Z,6.47
2022-09-23T19:10:15.821Z,6.43
2022-09-23T19:12:44.245Z,6.83
2022-09-23T19:15:11.659Z,11.13
2022-09-23T19:17:39.188Z,9.37
2022-09-23T19:20:08.466Z,15.00
2022-09-23T19:22:35.782Z,11.50
2022-09-23T19:25:03.441Z,12.20
2022-09-23T19:27:30.740Z,8.37
2022-09-23T19:29:58.167Z,7.20
2022-09-23T19:32:25.546Z,7.60
2022-09-23T19:34:52.900Z,10.03
2022-09-23T19:37:20.465Z,7.07
2022-09-23T19:39:47.864Z,6.80
2022-09-23T19:42:15.393Z,10.37
2022-09-23T19:44:42.686Z,9.33
2022-09-23T19:47:09.981Z,8.30
2022-09-23T19:49:37.346Z,6.63
2022-09-23T19:52:05.006Z,9.67
2022-09-23T19:54:32.249Z,6.97
2022-09-23T19:56:59.698Z,7.67
2022-09-23T19:59:27.872Z,7.27
2022-09-23T20:01:58.195Z,14.03
2022-09-23T20:04:29.209Z,7.00
2022-09-23T20:07:00.178Z,8.00
2022-09-23T20:09:28.188Z,8.90
2022-09-23T20:11:55.710Z,10.80
2022-09-23T20:14:23.572Z,9.00
2022-09-23T20:16:51.615Z,5.53
2022-09-23T20:19:19.185Z,6.43
2022-09-23T20:21:50.224Z,5.87
2022-09-23T20:24:17.630Z,12.43
2022-09-23T20:26:45.912Z,7.70
2022-09-23T20:29:13.192Z,10.17
2022-09-23T20:31:40.692Z,8.60
2022-09-23T20:34:09.406Z,8.50
2022-09-23T20:36:36.818Z,6.63
2022-09-23T20:39:05.290Z,9.10
2022-09-23T20:41:34.008Z,9.17
2022-09-23T20:44:01.502Z,10.07
2022-09-23T20:46:29.405Z,7.73
2022-09-23T20:48:57.001Z,7.93
2022-09-23T20:51:24.952Z,9.33
2022-09-23T20:53:55.523Z,11.37
2022-09-23T20:56:23.327Z,10.27
2022-09-23T20:58:50.595Z,9.77
2022-09-23T21:01:18.475Z,5.90
2022-09-23T21:03:47.967Z,7.37
2022-09-23T21:06:17.217Z,9.30
2022-09-23T21:08:44.821Z,9.20
2022-09-23T21:11:14.269Z,8.67
2022-09-23T21:13:46.616Z,9.50
2022-09-23T21:16:15.006Z,12.40
2022-09-23T21:18:42.715Z,12.53
2022-09-23T21:21:11.739Z,9.33
2022-09-23T21:23:40.306Z,11.53
2022-09-23T21:26:10.696Z,9.80
2022-09-23T21:28:40.811Z,13.93
2022-09-23T21:31:35.567Z,11.43
2022-09-23T21:34:05.307Z,11.03
2022-09-23T21:36:34.981Z,12.93
2022-09-23T21:39:02.116Z,15.20
2022-09-23T21:41:29.366Z,13.03
2022-09-23T21:43:56.923Z,9.13
2022-09-23T21:46:25.668Z,12.60
2022-09-23T21:48:54.387Z,9.83
2022-09-23T21:51:24.073Z,12.87
2022-09-23T21:53:52.591Z,11.20
2022-09-23T21:56:22.600Z,12.73
2022-09-23T21:58:50.850Z,13.33
2022-09-23T22:01:20.750Z,12.37
2022-09-23T22:03:54.121Z,14.07
2022-09-23T22:06:27.507Z,15.33
2022-09-23T22:08:56.867Z,12.70
2022-09-23T22:11:24.746Z,13.57
2022-09-23T22:13:51.910Z,14.13
2022-09-23T22:16:19.152Z,11.77
2022-09-23T22:18:46.327Z,12.43
2022-09-23T22:21:13.446Z,13.17
2022-09-23T22:23:40.655Z,13.80
2022-09-23T22:26:07.836Z,17.87
2022-09-23T22:28:35.005Z,15.87
2022-09-23T22:31:02.213Z,17.97
2022-09-23T22:33:29.411Z,16.33
2022-09-23T22:36:03.380Z,15.40
2022-09-23T22:38:30.560Z,14.53
2022-09-23T22:40:57.775Z,13.93
2022-09-23T22:43:28.052Z,16.20
2022-09-23T22:45:55.340Z,14.13
2022-09-23T22:48:22.519Z,14.53
2022-09-23T22:50:49.634Z,13.43
2022-09-23T22:53:16.804Z,14.60
2022-09-23T22:55:44.048Z,15.53
2022-09-23T22:58:31.337Z,15.63
2022-09-23T23:00:58.469Z,13.47
2022-09-23T23:03:26.201Z,15.17
2022-09-23T23:05:54.091Z,17.43
2022-09-23T23:08:21.335Z,13.07
2022-09-23T23:10:48.570Z,17.87
2022-09-23T23:13:16.049Z,14.87
2022-09-23T23:15:43.473Z,14.50
2022-09-23T23:18:10.674Z,14.53
2022-09-23T23:20:37.855Z,13.20
2022-09-23T23:23:05.092Z,15.17
2022-09-23T23:25:32.415Z,18.03
2022-09-23T23:27:59.540Z,15.50
2022-09-23T23:30:26.691Z,12.63
2022-09-23T23:32:53.832Z,14.73
2022-09-23T23:35:21.000Z,16.80
2022-09-23T23:37:49.338Z,16.93
2022-09-23T23:40:16.490Z,18.20
2022-09-23T23:42:43.714Z,16.70
2022-09-23T23:45:10.966Z,15.20
2022-09-23T23:47:38.098Z,14.13
2022-09-23T23:50:05.623Z,13.90
2022-09-23T23:52:32.902Z,14.67
2022-09-23T23:55:00.226Z,13.97
2022-09-23T23:57:27.428Z,16.03
2022-09-23T23:59:54.591Z,17.43
